createdAt,value
2019-05-18T00:01:36.475Z,5.63
2019-05-18T00:04:03.713Z,5.30
2019-05-18T00:06:30.977Z,5.47
2019-05-18T00:08:58.230Z,5.50
2019-05-18T00:11:25.490Z,5.60
2019-05-18T00:13:52.761Z,4.53
2019-05-18T00:16:20.017Z,5.80
2019-05-18T00:18:47.532Z,5.97
2019-05-18T00:21:14.798Z,5.20
2019-05-18T00:23:42.042Z,4.90
2019-05-18T00:26:09.307Z,5.50
2019-05-18T00:28:36.562Z,5.03
2019-05-18T00:31:03.899Z,4.17
2019-05-18T00:33:31.160Z,3.83
2019-05-18T00:35:58.490Z,4.20
2019-05-18T00:38:25.737Z,4.43
2019-05-18T00:40:53.074Z,4.17
2019-05-18T00:43:20.326Z,3.30
2019-05-18T00:45:47.590Z,3.37
2019-05-18T00:48:15.111Z,3.17
2019-05-18T00:50:42.746Z,2.97
2019-05-18T00:53:10.094Z,3.40
2019-05-18T00:55:37.343Z,3.40
2019-05-18T00:58:04.662Z,3.67
2019-05-18T01:00:32.263Z,3.57
2019-05-18T01:02:59.539Z,3.40
2019-05-18T01:05:26.850Z,3.30
2019-05-18T01:07:54.321Z,3.07
2019-05-18T01:10:21.566Z,3.03
2019-05-18T01:12:48.831Z,3.07
2019-05-18T01:15:16.243Z,3.60
2019-05-18T01:17:56.438Z,3.33
2019-05-18T01:20:12.551Z,3.17
2019-05-18T01:22:40.100Z,3.00
2019-05-18T01:25:07.410Z,2.70
2019-05-18T01:27:34.679Z,2.90
2019-05-18T01:30:02.351Z,2.97
2019-05-18T01:32:29.735Z,3.10
2019-05-18T01:34:56.982Z,2.70
2019-05-18T01:37:24.246Z,2.93
2019-05-18T01:39:51.494Z,3.13
2019-05-18T01:42:18.768Z,3.30
2019-05-18T01:44:46.006Z,2.77
2019-05-18T01:47:13.530Z,3.03
2019-05-18T01:49:40.842Z,2.90
2019-05-18T01:52:08.141Z,3.23
2019-05-18T01:54:35.389Z,2.73
2019-05-18T01:57:02.652Z,2.57
2019-05-18T01:59:29.904Z,2.87
2019-05-18T02:01:57.425Z,2.97
2019-05-18T02:04:24.918Z,3.00
2019-05-18T02:06:52.443Z,2.53
2019-05-18T02:09:19.725Z,3.13
2019-05-18T02:11:47.258Z,3.00
2019-05-18T02:14:14.525Z,2.50
2019-05-18T02:16:41.761Z,2.80
2019-05-18T02:19:09.035Z,2.73
2019-05-18T02:21:36.288Z,3.00
2019-05-18T02:24:03.680Z,2.67
2019-05-18T02:26:31.045Z,2.63
2019-05-18T02:28:58.309Z,2.60
2019-05-18T02:31:25.559Z,3.10
2019-05-18T02:33:52.820Z,3.13
2019-05-18T02:36:20.064Z,2.70
2019-05-18T02:38:47.350Z,3.10
2019-05-18T02:41:14.657Z,2.83
2019-05-18T02:43:41.926Z,2.27
2019-05-18T02:46:09.422Z,3.00
2019-05-18T02:48:49.052Z,2.33
2019-05-18T02:51:05.648Z,2.20
2019-05-18T02:53:32.915Z,2.40
2019-05-18T02:56:00.155Z,2.50
2019-05-18T02:58:27.437Z,2.87
2019-05-18T03:00:55.068Z,2.57
2019-05-18T03:03:22.403Z,2.07
2019-05-18T03:05:49.648Z,2.77
2019-05-18T03:08:16.916Z,2.67
2019-05-18T03:10:44.163Z,2.80
2019-05-18T03:13:11.692Z,2.27
2019-05-18T03:15:39.005Z,2.70
2019-05-18T03:18:06.266Z,3.20
2019-05-18T03:20:33.656Z,2.20
2019-05-18T03:23:00.919Z,2.60
2019-05-18T03:25:28.163Z,2.40
2019-05-18T03:27:55.413Z,2.77
2019-05-18T03:30:22.678Z,2.90
2019-05-18T03:32:49.921Z,2.60
2019-05-18T03:35:17.460Z,2.23
2019-05-18T03:37:44.702Z,3.07
2019-05-18T03:40:11.981Z,2.67
2019-05-18T03:42:39.294Z,2.90
2019-05-18T03:45:07.726Z,2.67
2019-05-18T03:47:34.976Z,3.00
2019-05-18T03:50:02.511Z,3.03
2019-05-18T03:52:29.750Z,2.80
2019-05-18T03:54:57.026Z,2.90
2019-05-18T03:57:24.351Z,2.70
2019-05-18T03:59:51.678Z,2.47
2019-05-18T04:02:18.924Z,2.80
2019-05-18T04:04:46.203Z,2.80
2019-05-18T04:07:13.704Z,2.93
2019-05-18T04:09:41.211Z,2.97
2019-05-18T04:12:08.461Z,2.20
2019-05-18T04:14:35.728Z,2.63
2019-05-18T04:17:02.967Z,3.20
2019-05-18T04:19:45.639Z,2.57
2019-05-18T04:21:59.615Z,3.40
2019-05-18T04:24:26.865Z,3.00
2019-05-18T04:26:54.127Z,3.10
2019-05-18T04:29:21.379Z,2.47
2019-05-18T04:31:48.644Z,2.90
2019-05-18T04:34:15.895Z,3.30
2019-05-18T04:36:43.163Z,3.60
2019-05-18T04:39:10.411Z,3.30
2019-05-18T04:41:37.685Z,3.53
2019-05-18T04:44:04.917Z,3.00
2019-05-18T04:46:32.451Z,2.57
2019-05-18T04:48:59.693Z,2.57
2019-05-18T04:51:26.955Z,3.30
2019-05-18T04:53:54.214Z,3.40
2019-05-18T04:56:21.938Z,3.60
2019-05-18T04:58:49.274Z,3.33
2019-05-18T05:01:16.538Z,3.60
2019-05-18T05:03:43.782Z,3.87
2019-05-18T05:06:11.051Z,3.93
2019-05-18T05:08:38.294Z,4.23
2019-05-18T05:11:05.553Z,4.43
2019-05-18T05:13:32.806Z,4.53
2019-05-18T05:16:00.084Z,5.07
2019-05-18T05:18:27.317Z,5.40
2019-05-18T05:20:54.590Z,4.20
2019-05-18T05:23:22.078Z,4.80
2019-05-18T05:25:49.334Z,4.13
2019-05-18T05:28:16.603Z,4.10
2019-05-18T05:30:43.853Z,4.37
2019-05-18T05:33:11.439Z,4.37
2019-05-18T05:35:38.852Z,4.57
2019-05-18T05:38:06.115Z,4.63
2019-05-18T05:40:34.165Z,4.20
2019-05-18T05:43:01.426Z,4.20
2019-05-18T05:45:28.679Z,4.73
2019-05-18T05:47:55.937Z,4.60
2019-05-18T05:50:35.361Z,4.30
2019-05-18T05:52:52.449Z,4.70
2019-05-18T05:55:20.026Z,4.80
2019-05-18T05:57:47.290Z,4.70
2019-05-18T06:00:14.702Z,4.30
2019-05-18T06:02:42.222Z,4.80
2019-05-18T06:05:10.123Z,4.73
2019-05-18T06:07:37.470Z,4.53
2019-05-18T06:10:06.187Z,4.17
2019-05-18T06:12:33.448Z,4.40
2019-05-18T06:15:00.693Z,4.47
2019-05-18T06:17:29.401Z,4.43
2019-05-18T06:19:58.879Z,4.20
2019-05-18T06:22:26.195Z,3.57
2019-05-18T06:24:53.435Z,3.70
2019-05-18T06:27:20.932Z,3.23
2019-05-18T06:29:48.214Z,3.67
2019-05-18T06:32:15.556Z,4.00
2019-05-18T06:34:43.089Z,3.70
2019-05-18T06:37:10.333Z,2.90
2019-05-18T06:39:37.611Z,3.17
2019-05-18T06:42:04.986Z,3.60
2019-05-18T06:44:32.246Z,3.37
2019-05-18T06:46:59.580Z,3.43
2019-05-18T06:49:26.914Z,2.97
2019-05-18T06:51:54.239Z,3.67
2019-05-18T06:54:21.503Z,3.70
2019-05-18T06:56:49.303Z,3.60
2019-05-18T06:59:16.942Z,3.57
2019-05-18T07:01:44.282Z,4.10
2019-05-18T07:04:11.542Z,3.87
2019-05-18T07:06:38.874Z,3.10
2019-05-18T07:09:13.206Z,3.60
2019-05-18T07:11:35.889Z,3.30
2019-05-18T07:14:03.522Z,3.00
2019-05-18T07:16:30.770Z,3.57
2019-05-18T07:18:58.533Z,3.90
2019-05-18T07:21:26.170Z,3.67
2019-05-18T07:23:53.842Z,3.43
2019-05-18T07:26:21.649Z,3.00
2019-05-18T07:28:49.047Z,3.10
2019-05-18T07:31:16.290Z,3.43
2019-05-18T07:33:43.686Z,3.27
2019-05-18T07:36:10.954Z,3.33
2019-05-18T07:38:38.258Z,3.60
2019-05-18T07:41:05.524Z,3.40
2019-05-18T07:43:32.768Z,3.80
2019-05-18T07:46:00.248Z,3.40
2019-05-18T07:48:27.582Z,3.07
2019-05-18T07:50:55.292Z,3.20
2019-05-18T07:53:22.857Z,3.33
2019-05-18T07:55:50.483Z,2.67
2019-05-18T07:58:18.315Z,2.93
2019-05-18T08:00:45.949Z,3.40
2019-05-18T08:03:13.767Z,3.10
2019-05-18T08:05:41.577Z,3.30
2019-05-18T08:08:08.927Z,3.07
2019-05-18T08:10:37.054Z,3.50
2019-05-18T08:13:05.130Z,3.17
2019-05-18T08:15:32.457Z,3.37
2019-05-18T08:17:59.960Z,3.50
2019-05-18T08:20:27.210Z,3.13
2019-05-18T08:22:54.638Z,3.80
2019-05-18T08:25:21.912Z,3.50
2019-05-18T08:27:49.194Z,3.30
2019-05-18T08:30:16.508Z,3.53
2019-05-18T08:32:43.774Z,3.93
2019-05-18T08:35:11.849Z,3.70
2019-05-18T08:37:39.205Z,3.47
2019-05-18T08:40:06.878Z,3.50
2019-05-18T08:42:34.224Z,3.80
2019-05-18T08:45:01.469Z,3.30
2019-05-18T08:47:28.984Z,3.43
2019-05-18T08:49:56.232Z,3.10
2019-05-18T08:52:23.494Z,3.43
2019-05-18T08:54:50.987Z,3.40
2019-05-18T08:57:18.505Z,3.93
2019-05-18T08:59:45.999Z,4.17
2019-05-18T09:02:13.264Z,3.30
2019-05-18T09:04:40.789Z,4.73
2019-05-18T09:07:08.368Z,5.50
2019-05-18T09:09:35.607Z,4.90
2019-05-18T09:12:02.870Z,4.13
2019-05-18T09:14:30.393Z,4.30
2019-05-18T09:16:57.640Z,4.03
2019-05-18T09:19:24.899Z,4.17
2019-05-18T09:21:52.226Z,4.10
2019-05-18T09:24:19.743Z,4.03
2019-05-18T09:26:47.260Z,3.60
2019-05-18T09:29:14.514Z,3.40
2019-05-18T09:31:42.021Z,3.43
2019-05-18T09:34:09.539Z,3.20
2019-05-18T09:36:36.869Z,3.10
2019-05-18T09:39:05.302Z,2.97
2019-05-18T09:41:32.546Z,3.83
2019-05-18T09:43:59.813Z,3.67
2019-05-18T09:46:27.795Z,3.50
2019-05-18T09:48:56.062Z,3.47
2019-05-18T09:51:23.700Z,3.03
2019-05-18T09:53:52.031Z,3.17
2019-05-18T09:56:19.382Z,3.40
2019-05-18T09:58:46.907Z,2.80
2019-05-18T10:01:14.300Z,3.20
2019-05-18T10:03:41.780Z,3.70
2019-05-18T10:06:09.047Z,2.63
2019-05-18T10:08:36.302Z,3.20
2019-05-18T10:11:03.555Z,3.13
2019-05-18T10:13:30.814Z,2.80
2019-05-18T10:15:58.311Z,3.17
2019-05-18T10:18:25.843Z,3.23
